createdAt,value
2022-12-25T00:02:21.051Z,101448.66
2022-12-25T00:04:48.993Z,101444.75
2022-12-25T00:07:19.793Z,101446.53
2022-12-25T00:09:47.672Z,101449.84
2022-12-25T00:12:15.783Z,101448.59
2022-12-25T00:14:43.715Z,101450.28
2022-12-25T00:17:11.680Z,101457.34
2022-12-25T00:19:40.977Z,101453.25
2022-12-25T00:22:09.218Z,101457.91
2022-12-25T00:24:37.460Z,101452.84
2022-12-25T00:27:05.392Z,101450.19
2022-12-25T00:29:35.707Z,101459.16
2022-12-25T00:32:03.602Z,101463.63
2022-12-25T00:34:31.520Z,101460.53
2022-12-25T00:37:00.763Z,101465.78
2022-12-25T00:39:28.699Z,101463.31
2022-12-25T00:42:13.962Z,101468.72
2022-12-25T00:44:41.808Z,101474.16
2022-12-25T00:47:09.731Z,101465.59
2022-12-25T00:49:37.634Z,101473.53
2022-12-25T00:52:07.212Z,101479.56
2022-12-25T00:54:35.230Z,101488.50
2022-12-25T00:57:03.563Z,101491.44
2022-12-25T00:59:33.284Z,101497.47
2022-12-25T01:02:21.992Z,101493.69
2022-12-25T01:04:50.542Z,101493.75
2022-12-25T01:07:20.222Z,101497.94
2022-12-25T01:10:06.470Z,101496.91
2022-12-25T01:12:35.976Z,101494.72
2022-12-25T01:15:04.576Z,101493.38
2022-12-25T01:17:32.580Z,101499.34
2022-12-25T01:20:00.449Z,101508.13
2022-12-25T01:22:29.690Z,101505.47
2022-12-25T01:24:57.556Z,101516.03
2022-12-25T01:27:25.430Z,101521.56
2022-12-25T01:29:53.325Z,101520.19
2022-12-25T01:32:21.268Z,101528.69
2022-12-25T01:34:53.845Z,101531.56
2022-12-25T01:37:24.911Z,101540.09
2022-12-25T01:39:54.138Z,101541.97
2022-12-25T01:42:24.509Z,101549.34
2022-12-25T01:45:33.774Z,101539.63
2022-12-25T01:48:05.739Z,101541.88
2022-12-25T01:50:34.564Z,101548.03
2022-12-25T01:53:03.138Z,101542.03
2022-12-25T01:55:34.217Z,101545.81
2022-12-25T01:58:03.333Z,101537.75
2022-12-25T02:00:31.280Z,101539.63
2022-12-25T02:03:00.122Z,101552.69
2022-12-25T02:05:29.904Z,101558.88
2022-12-25T02:08:00.681Z,101557.84
2022-12-25T02:10:28.843Z,101557.69
2022-12-25T02:12:58.103Z,101559.03
2022-12-25T02:15:36.236Z,101564.06
2022-12-25T02:18:10.913Z,101558.69
2022-12-25T02:20:51.939Z,101557.91
2022-12-25T02:24:06.914Z,101557.31
2022-12-25T02:27:01.550Z,101559.72
2022-12-25T02:29:37.814Z,101556.31
2022-12-25T02:32:11.288Z,101563.59
2022-12-25T02:34:44.723Z,101568.56
2022-12-25T02:37:16.072Z,101575.25
2022-12-25T02:39:59.228Z,101583.41
2022-12-25T02:43:01.266Z,101590.09
2022-12-25T02:45:52.836Z,101591.81
2022-12-25T02:48:41.313Z,101585.13
2022-12-25T02:51:39.574Z,101578.78
2022-12-25T02:54:29.208Z,101577.69
2022-12-25T02:57:16.802Z,101575.69
2022-12-25T03:00:05.835Z,101575.06
2022-12-25T03:02:52.778Z,101583.91
2022-12-25T03:05:53.185Z,101590.09
2022-12-25T03:08:25.843Z,101592.69
2022-12-25T03:11:18.225Z,101586.78
2022-12-25T03:13:49.961Z,101584.34
2022-12-25T03:16:35.825Z,101579.81
2022-12-25T03:19:26.012Z,101586.84
2022-12-25T03:22:13.444Z,101580.88
2022-12-25T03:24:59.673Z,101581.16
2022-12-25T03:27:30.923Z,101588.81
2022-12-25T03:30:16.349Z,101597.03
2022-12-25T03:32:58.613Z,101599.06
2022-12-25T03:35:44.164Z,101604.72
2022-12-25T03:38:52.158Z,101595.53
2022-12-25T03:41:43.864Z,101599.56
2022-12-25T03:44:36.737Z,101606.13
2022-12-25T03:47:35.397Z,101598.13
2022-12-25T03:50:25.723Z,101605.34
2022-12-25T03:53:14.897Z,101603.53
2022-12-25T03:56:16.440Z,101608.84
2022-12-25T03:59:10.213Z,101612.84
2022-12-25T04:01:55.585Z,101622.75
2022-12-25T04:04:40.961Z,101620.34
2022-12-25T04:07:26.136Z,101621.56
2022-12-25T04:10:13.481Z,101620.63
2022-12-25T04:12:58.791Z,101628.22
2022-12-25T04:15:44.481Z,101625.94
2022-12-25T04:18:30.118Z,101635.97
2022-12-25T04:21:17.584Z,101630.16
2022-12-25T04:24:03.022Z,101632.91
2022-12-25T04:26:49.755Z,101627.38
2022-12-25T04:29:40.341Z,101618.91
2022-12-25T04:32:25.742Z,101623.28
2022-12-25T04:35:10.770Z,101621.47
2022-12-25T04:37:38.646Z,101634.38
2022-12-25T04:40:08.223Z,101634.06
2022-12-25T04:42:37.479Z,101644.78
2022-12-25T04:45:05.912Z,101640.19
2022-12-25T04:47:33.895Z,101653.56
2022-12-25T04:50:01.777Z,101653.41
2022-12-25T04:52:30.014Z,101651.63
2022-12-25T04:54:57.845Z,101650.56
2022-12-25T04:57:25.724Z,101644.69
2022-12-25T04:59:54.905Z,101639.50
2022-12-25T05:02:23.036Z,101644.38
2022-12-25T05:04:51.046Z,101639.75
2022-12-25T05:07:18.941Z,101636.41
2022-12-25T05:09:46.840Z,101641.78
2022-12-25T05:12:14.813Z,101637.41
2022-12-25T05:14:42.667Z,101624.38
2022-12-25T05:17:11.914Z,101633.34
2022-12-25T05:19:39.761Z,101635.59
2022-12-25T05:22:07.615Z,101639.06
2022-12-25T05:24:35.557Z,101637.28
2022-12-25T05:27:03.430Z,101632.19
2022-12-25T05:29:31.317Z,101637.06
2022-12-25T05:31:59.205Z,101636.31
2022-12-25T05:34:28.397Z,101635.28
2022-12-25T05:36:56.608Z,101631.97
2022-12-25T05:39:24.558Z,101638.66
2022-12-25T05:41:52.567Z,101639.25
2022-12-25T05:44:20.485Z,101627.47
2022-12-25T05:46:48.448Z,101627.94
2022-12-25T05:49:16.600Z,101628.31
2022-12-25T05:51:45.834Z,101633.47
2022-12-25T05:54:13.761Z,101626.06
2022-12-25T05:56:41.660Z,101614.53
2022-12-25T05:59:09.720Z,101625.44
2022-12-25T06:01:37.698Z,101619.44
2022-12-25T06:04:12.215Z,101612.72
2022-12-25T06:06:40.718Z,101605.38
2022-12-25T06:09:10.738Z,101600.50
2022-12-25T06:11:38.622Z,101606.47
2022-12-25T06:14:06.783Z,101600.22
2022-12-25T06:16:38.197Z,101602.50
2022-12-25T06:19:07.154Z,101605.34
2022-12-25T06:21:35.297Z,101605.41
2022-12-25T06:24:03.331Z,101598.22
2022-12-25T06:26:32.676Z,101606.13
2022-12-25T06:29:00.507Z,101621.00
2022-12-25T06:31:28.587Z,101611.88
2022-12-25T06:33:56.654Z,101616.97
2022-12-25T06:36:26.895Z,101617.34
2022-12-25T06:38:55.120Z,101608.84
2022-12-25T06:41:24.903Z,101604.91
2022-12-25T06:43:56.633Z,101617.81
2022-12-25T06:46:27.012Z,101616.59
2022-12-25T06:48:55.519Z,101611.56
2022-12-25T06:51:25.716Z,101612.59
2022-12-25T06:53:54.941Z,101622.72
2022-12-25T06:56:25.319Z,101627.19
2022-12-25T06:58:56.772Z,101628.31
2022-12-25T07:01:27.166Z,101647.72
2022-12-25T07:03:58.053Z,101653.34
2022-12-25T07:06:25.938Z,101646.78
2022-12-25T07:08:54.228Z,101640.97
2022-12-25T07:11:22.158Z,101643.81
2022-12-25T07:13:50.245Z,101654.44
2022-12-25T07:16:20.196Z,101670.53
2022-12-25T07:18:48.185Z,101663.53
2022-12-25T07:21:17.678Z,101674.84
2022-12-25T07:23:46.526Z,101678.47
2022-12-25T07:26:14.797Z,101666.97
2022-12-25T07:28:42.942Z,101677.63
2022-12-25T07:31:13.706Z,101680.50
2022-12-25T07:33:43.610Z,101683.97
2022-12-25T07:36:12.801Z,101685.09
2022-12-25T07:38:41.744Z,101686.63
2022-12-25T07:41:10.607Z,101684.09
2022-12-25T07:43:38.785Z,101672.28
2022-12-25T07:46:07.051Z,101672.88
2022-12-25T07:48:35.171Z,101679.03
2022-12-25T07:51:06.589Z,101670.56
2022-12-25T07:53:35.287Z,101673.41
2022-12-25T07:56:05.977Z,101671.81
2022-12-25T07:58:34.313Z,101671.25
2022-12-25T08:01:05.395Z,101674.78
2022-12-25T08:03:33.983Z,101677.09
2022-12-25T08:06:05.009Z,101672.06
2022-12-25T08:08:33.541Z,101681.41
2022-12-25T08:11:01.583Z,101683.84
2022-12-25T08:13:31.801Z,101685.56
2022-12-25T08:16:00.517Z,101668.84
2022-12-25T08:18:30.410Z,101668.69
2022-12-25T08:21:05.006Z,101674.38
2022-12-25T08:23:35.869Z,101681.91
2022-12-25T08:26:05.921Z,101671.72
2022-12-25T08:28:34.416Z,101673.44
2022-12-25T08:31:07.439Z,101666.97
2022-12-25T08:33:35.919Z,101668.41
2022-12-25T08:36:06.637Z,101671.25
2022-12-25T08:38:34.766Z,101670.91
2022-12-25T08:41:02.934Z,101665.31
2022-12-25T08:43:30.815Z,101669.88
2022-12-25T08:45:58.784Z,101660.22
2022-12-25T08:48:26.910Z,101654.56
2022-12-25T08:50:55.168Z,101647.44
2022-12-25T08:53:24.656Z,101656.31
2022-12-25T08:55:58.605Z,101652.47
2022-12-25T08:58:26.940Z,101635.00
2022-12-25T09:00:55.147Z,101632.94
2022-12-25T09:03:23.923Z,101637.13
2022-12-25T09:05:52.316Z,101637.94
2022-12-25T09:08:21.700Z,101635.19
2022-12-25T09:10:51.067Z,101632.34
2022-12-25T09:13:18.941Z,101618.28
2022-12-25T09:15:46.875Z,101620.50
2022-12-25T09:18:15.323Z,101614.53
2022-12-25T09:20:43.267Z,101617.25
2022-12-25T09:23:14.057Z,101611.22
2022-12-25T09:25:42.313Z,101609.03
2022-12-25T09:28:11.544Z,101621.28
2022-12-25T09:30:39.463Z,101621.50
2022-12-25T09:33:07.411Z,101617.19
2022-12-25T09:35:35.379Z,101616.56
2022-12-25T09:38:03.209Z,101606.53
2022-12-25T09:40:33.364Z,101610.97
2022-12-25T09:43:03.127Z,101606.38
2022-12-25T09:45:36.835Z,101606.38
2022-12-25T09:48:05.235Z,101617.47
2022-12-25T09:50:42.183Z,101612.66
2022-12-25T09:53:15.898Z,101613.72
2022-12-25T09:56:02.558Z,101609.09
2022-12-25T09:58:31.419Z,101610.03
2022-12-25T10:01:09.018Z,101620.06
2022-12-25T10:03:55.976Z,101619.38
2022-12-25T10:06:30.666Z,101625.59
2022-12-25T10:09:13.367Z,101626.44
2022-12-25T10:12:03.057Z,101617.69
2022-12-25T10:14:38.836Z,101622.38
2022-12-25T10:17:31.121Z,101615.91
2022-12-25T10:20:09.163Z,101621.56
2022-12-25T10:22:41.570Z,101616.75
2022-12-25T10:25:17.848Z,101608.28
2022-12-25T10:27:46.731Z,101607.16
2022-12-25T10:30:17.107Z,101609.47
2022-12-25T10:32:47.803Z,101598.63
2022-12-25T10:35:18.737Z,101605.72
2022-12-25T10:37:55.125Z,101607.78
2022-12-25T10:40:33.149Z,101601.88
2022-12-25T10:43:08.921Z,101602.81
2022-12-25T10:45:44.793Z,101589.19
2022-12-25T10:48:22.755Z,101575.88
2022-12-25T10:50:51.449Z,101571.94
2022-12-25T10:53:25.100Z,101567.50
2022-12-25T10:56:01.471Z,101570.66
2022-12-25T10:58:30.479Z,101572.13
2022-12-25T11:01:03.497Z,101567.00
2022-12-25T11:03:35.158Z,101569.19
2022-12-25T11:06:03.806Z,101577.75
2022-12-25T11:08:34.846Z,101568.00
2022-12-25T11:11:06.430Z,101571.13
2022-12-25T11:13:37.352Z,101565.69
2022-12-25T11:16:09.708Z,101569.78
2022-12-25T11:18:47.094Z,101576.91
2022-12-25T11:21:19.708Z,101572.75
2022-12-25T11:23:49.890Z,101572.53
2022-12-25T11:26:19.378Z,101572.59
2022-12-25T11:28:47.623Z,101566.59
2022-12-25T11:31:19.429Z,101579.56
2022-12-25T11:33:56.545Z,101577.28
2022-12-25T11:36:31.171Z,101581.16
2022-12-25T11:39:06.741Z,101565.53
2022-12-25T11:41:37.160Z,101540.03
2022-12-25T11:44:15.815Z,101542.69
2022-12-25T11:46:52.259Z,101527.00
2022-12-25T11:49:23.133Z,101512.34
2022-12-25T11:51:54.794Z,101504.53
2022-12-25T11:54:29.329Z,101485.00
2022-12-25T11:57:00.445Z,101473.81
2022-12-25T11:59:34.317Z,101471.16
2022-12-25T12:02:12.731Z,101472.09
2022-12-25T12:04:50.128Z,101464.47
2022-12-25T12:07:25.113Z,101461.63
2022-12-25T12:10:03.464Z,101458.28
2022-12-25T12:12:39.711Z,101466.19
2022-12-25T12:15:20.122Z,101481.81
2022-12-25T12:17:48.757Z,101481.69
2022-12-25T12:20:30.631Z,101478.59
2022-12-25T12:22:59.962Z,101479.66
2022-12-25T12:25:28.984Z,101483.75
2022-12-25T12:28:04.942Z,101480.66
2022-12-25T12:30:36.629Z,101464.00
2022-12-25T12:33:07.839Z,101451.41
2022-12-25T12:35:40.572Z,101444.53
2022-12-25T12:38:15.815Z,101446.78
2022-12-25T12:40:52.001Z,101452.97
2022-12-25T12:43:30.981Z,101456.41
2022-12-25T12:46:03.171Z,101464.59
2022-12-25T12:48:38.395Z,101456.94
2022-12-25T12:51:09.691Z,101450.75
2022-12-25T12:53:39.269Z,101455.22
2022-12-25T12:56:16.447Z,101444.75
2022-12-25T12:58:49.986Z,101437.31
2022-12-25T13:01:38.451Z,101427.22
2022-12-25T13:04:38.407Z,101434.25
2022-12-25T13:07:20.473Z,101441.03
2022-12-25T13:10:04.825Z,101431.78
2022-12-25T13:12:32.753Z,101437.47
2022-12-25T13:15:01.725Z,101436.75
2022-12-25T13:17:31.494Z,101429.78
2022-12-25T13:20:02.288Z,101436.19
2022-12-25T13:22:35.117Z,101437.69
2022-12-25T13:25:07.780Z,101434.69
2022-12-25T13:27:36.111Z,101430.72
2022-12-25T13:30:14.347Z,101435.59
2022-12-25T13:32:45.786Z,101421.81
2022-12-25T13:35:15.231Z,101410.91
2022-12-25T13:37:46.091Z,101421.31
2022-12-25T13:40:22.184Z,101413.44
2022-12-25T13:42:50.144Z,101404.72
2022-12-25T13:45:23.899Z,101397.97
2022-12-25T13:47:55.393Z,101374.63
2022-12-25T13:50:25.715Z,101379.25
2022-12-25T13:52:57.532Z,101386.06
2022-12-25T13:55:27.646Z,101392.47
2022-12-25T13:57:57.783Z,101369.78
2022-12-25T14:00:31.214Z,101363.09
2022-12-25T14:03:00.210Z,101362.88
2022-12-25T14:05:34.741Z,101361.50
2022-12-25T14:08:18.666Z,101351.56
2022-12-25T14:10:50.257Z,101365.59
2022-12-25T14:13:20.719Z,101366.75
2022-12-25T14:15:49.799Z,101372.47
2022-12-25T14:18:19.305Z,101367.56
2022-12-25T14:21:00.076Z,101373.34
2022-12-25T14:23:41.187Z,101375.31
2022-12-25T14:26:15.623Z,101364.41
2022-12-25T14:28:47.649Z,101370.28
2022-12-25T14:31:18.316Z,101373.13
2022-12-25T14:33:49.685Z,101371.63
2022-12-25T14:36:17.798Z,101373.94
2022-12-25T14:38:58.135Z,101366.72
2022-12-25T14:41:37.893Z,101361.56
2022-12-25T14:44:26.188Z,101357.41
2022-12-25T14:47:07.489Z,101342.84
2022-12-25T14:49:48.550Z,101346.03
2022-12-25T14:52:21.380Z,101345.50
2022-12-25T14:54:54.721Z,101334.28
2022-12-25T14:57:27.095Z,101323.91
2022-12-25T15:00:01.508Z,101315.47
2022-12-25T15:02:40.894Z,101312.19
2022-12-25T15:05:28.884Z,101310.16
2022-12-25T15:08:02.529Z,101314.06
2022-12-25T15:13:20.677Z,101308.00
2022-12-25T15:15:56.527Z,101305.38
2022-12-25T15:18:27.988Z,101302.00
2022-12-25T15:20:56.954Z,101297.06
2022-12-25T15:23:25.657Z,101304.25
2022-12-25T15:25:55.028Z,101301.09
2022-12-25T15:28:22.960Z,101299.38
2022-12-25T15:30:50.950Z,101293.16
2022-12-25T15:33:20.299Z,101301.38
2022-12-25T15:35:48.891Z,101300.59
2022-12-25T15:38:16.805Z,101310.50
2022-12-25T15:40:44.817Z,101307.09
2022-12-25T15:43:40.255Z,101307.28
2022-12-25T15:46:04.758Z,101291.75
2022-12-25T15:48:32.633Z,101284.78
2022-12-25T15:51:00.546Z,101274.06
2022-12-25T15:53:28.427Z,101273.66
2022-12-25T15:55:56.356Z,101273.06
2022-12-25T15:58:25.617Z,101263.09
2022-12-25T16:00:53.381Z,101263.25
2022-12-25T16:03:21.205Z,101261.63
2022-12-25T16:05:49.351Z,101265.56
2022-12-25T16:08:17.228Z,101259.97
2022-12-25T16:10:45.165Z,101247.34
2022-12-25T16:13:13.562Z,101233.63
2022-12-25T16:15:42.842Z,101233.47
2022-12-25T16:18:11.478Z,101235.72
2022-12-25T16:20:39.454Z,101222.28
2022-12-25T16:23:07.324Z,101232.44
2022-12-25T16:25:35.185Z,101241.72
2022-12-25T16:28:03.762Z,101228.84
2022-12-25T16:30:31.950Z,101227.88
2022-12-25T16:33:01.201Z,101234.50
2022-12-25T16:35:29.238Z,101231.22
2022-12-25T16:37:57.126Z,101221.69
2022-12-25T16:40:25.011Z,101218.03
2022-12-25T16:42:52.914Z,101210.25
2022-12-25T16:45:21.036Z,101203.78
2022-12-25T16:47:48.943Z,101197.06
2022-12-25T16:50:18.339Z,101183.09
2022-12-25T16:52:46.240Z,101175.13
2022-12-25T16:55:14.255Z,101173.84
2022-12-25T16:57:42.129Z,101169.66
2022-12-25T17:00:11.684Z,101163.31
2022-12-25T17:02:39.718Z,101157.91
2022-12-25T17:05:08.765Z,101153.84
2022-12-25T17:07:39.063Z,101141.69
2022-12-25T17:10:09.704Z,101140.31
2022-12-25T17:12:37.571Z,101133.41
2022-12-25T17:15:07.140Z,101135.91
2022-12-25T17:17:34.987Z,101131.91
2022-12-25T17:20:03.908Z,101130.81
2022-12-25T17:22:32.367Z,101133.94
2022-12-25T17:25:01.752Z,101125.00
2022-12-25T17:27:29.847Z,101129.88
2022-12-25T17:29:57.940Z,101131.53
2022-12-25T17:32:26.118Z,101124.28
2022-12-25T17:34:53.999Z,101120.84
2022-12-25T17:37:21.895Z,101118.78
2022-12-25T17:39:49.963Z,101124.63
2022-12-25T17:42:19.488Z,101119.53
2022-12-25T17:44:47.510Z,101120.84
2022-12-25T17:47:15.460Z,101108.81
2022-12-25T17:49:43.342Z,101102.25
2022-12-25T17:52:11.343Z,101081.19
2022-12-25T17:54:40.866Z,101076.28
2022-12-25T17:57:08.976Z,101074.03
2022-12-25T17:59:39.639Z,101063.72
2022-12-25T18:02:08.141Z,101060.41
2022-12-25T18:04:36.245Z,101064.34
2022-12-25T18:07:04.419Z,101041.16
2022-12-25T18:09:32.526Z,101039.44
2022-12-25T18:12:01.298Z,101031.25
2022-12-25T18:14:29.208Z,101040.19
2022-12-25T18:17:01.285Z,101036.81
2022-12-25T18:19:29.241Z,101037.28
2022-12-25T18:21:59.666Z,101052.53
2022-12-25T18:24:28.570Z,101057.63
2022-12-25T18:26:56.576Z,101061.06
2022-12-25T18:29:24.549Z,101055.41
2022-12-25T18:31:52.800Z,101057.63
2022-12-25T18:34:24.121Z,101039.28
2022-12-25T18:36:52.447Z,101040.13
2022-12-25T18:39:20.519Z,101030.19
2022-12-25T18:42:17.178Z,101020.69
2022-12-25T18:44:45.664Z,101003.16
2022-12-25T18:47:16.086Z,100989.81
2022-12-25T18:49:45.615Z,100988.06
2022-12-25T18:52:49.217Z,100991.53
2022-12-25T18:55:02.430Z,100978.16
2022-12-25T18:57:33.254Z,100965.69
2022-12-25T19:00:02.935Z,100966.97
2022-12-25T19:02:31.482Z,100951.69
2022-12-25T19:05:01.059Z,100943.53
2022-12-25T19:07:29.506Z,100944.13
2022-12-25T19:09:57.661Z,100936.69
2022-12-25T19:12:25.974Z,100944.44
2022-12-25T19:14:54.042Z,100944.09
2022-12-25T19:17:31.173Z,100943.13
2022-12-25T19:20:01.203Z,100938.88
2022-12-25T19:22:29.318Z,100932.84
2022-12-25T19:24:57.605Z,100924.78
2022-12-25T19:27:26.235Z,100924.81
2022-12-25T19:29:54.241Z,100925.41
2022-12-25T19:32:22.248Z,100899.09
2022-12-25T19:34:50.440Z,100897.63
2022-12-25T19:37:20.704Z,100891.00
2022-12-25T19:39:48.848Z,100891.50
2022-12-25T19:42:19.195Z,100898.13
2022-12-25T19:44:47.374Z,100890.16
2022-12-25T19:47:15.336Z,100898.53
2022-12-25T19:49:44.710Z,100888.28
2022-12-25T19:52:14.548Z,100867.44
2022-12-25T19:54:44.064Z,100877.84
2022-12-25T19:57:11.992Z,100878.69
2022-12-25T19:59:41.437Z,100884.78
2022-12-25T20:02:10.580Z,100878.72
2022-12-25T20:04:38.722Z,100885.03
2022-12-25T20:07:06.645Z,100871.25
2022-12-25T20:09:35.467Z,100874.59
2022-12-25T20:12:05.767Z,100877.03
2022-12-25T20:14:33.860Z,100858.16
2022-12-25T20:17:01.853Z,100860.53
2022-12-25T20:19:29.891Z,100848.38
2022-12-25T20:21:58.783Z,100865.00
2022-12-25T20:24:27.089Z,100857.19
2022-12-25T20:26:59.017Z,100860.31
2022-12-25T20:29:31.325Z,100868.72
2022-12-25T20:31:59.391Z,100849.97
2022-12-25T20:34:27.298Z,100848.03
2022-12-25T20:36:57.375Z,100843.53
2022-12-25T20:39:25.235Z,100839.50
2022-12-25T20:41:53.079Z,100837.41
2022-12-25T20:44:20.943Z,100819.66
2022-12-25T20:46:50.166Z,100831.16
2022-12-25T20:49:18.687Z,100828.16
2022-12-25T20:51:46.570Z,100834.31
2022-12-25T20:54:14.881Z,100826.03
2022-12-25T20:56:42.955Z,100824.13
2022-12-25T20:59:11.783Z,100830.28
2022-12-25T21:01:42.161Z,100823.81
2022-12-25T21:04:16.009Z,100814.06
2022-12-25T21:06:44.532Z,100808.44
2022-12-25T21:09:12.424Z,100809.59
2022-12-25T21:11:40.727Z,100802.78
2022-12-25T21:14:08.626Z,100800.69
2022-12-25T21:16:36.562Z,100792.59
2022-12-25T21:19:04.492Z,100805.41
2022-12-25T21:21:35.883Z,100788.16
2022-12-25T21:24:03.807Z,100796.47
2022-12-25T21:26:31.862Z,100789.75
2022-12-25T21:29:02.549Z,100795.25
2022-12-25T21:31:31.207Z,100795.50
2022-12-25T21:33:58.220Z,100802.75
2022-12-25T21:36:28.266Z,100798.53
2022-12-25T21:38:59.351Z,100791.97
2022-12-25T21:41:28.430Z,100800.22
2022-12-25T21:43:57.201Z,100779.66
2022-12-25T21:46:25.669Z,100779.47
2022-12-25T21:48:54.386Z,100777.31
2022-12-25T21:51:42.699Z,100770.84
2022-12-25T21:54:12.859Z,100778.63
2022-12-25T21:56:44.834Z,100781.00
2022-12-25T21:59:15.355Z,100778.22
2022-12-25T22:01:44.421Z,100785.38
2022-12-25T22:04:13.826Z,100774.41
2022-12-25T22:06:59.288Z,100775.88
2022-12-25T22:09:28.818Z,100772.41
2022-12-25T22:12:15.671Z,100784.38
2022-12-25T22:14:56.324Z,100777.19
2022-12-25T22:17:44.599Z,100774.22
2022-12-25T22:20:15.235Z,100783.41
2022-12-25T22:22:43.342Z,100782.41
2022-12-25T22:25:13.546Z,100779.50
2022-12-25T22:27:42.603Z,100776.81
2022-12-25T22:30:12.961Z,100781.34
2022-12-25T22:32:41.417Z,100774.41
2022-12-25T22:35:10.148Z,100764.81
2022-12-25T22:37:39.108Z,100759.69
2022-12-25T22:40:09.335Z,100761.53
2022-12-25T22:42:38.670Z,100770.66
2022-12-25T22:45:07.229Z,100760.75
2022-12-25T22:47:35.208Z,100751.78
2022-12-25T22:50:03.241Z,100756.66
2022-12-25T22:52:31.153Z,100758.97
2022-12-25T22:54:58.987Z,100739.59
2022-12-25T22:57:26.854Z,100740.72
2022-12-25T22:59:56.144Z,100751.31
2022-12-25T23:02:24.117Z,100737.91
2022-12-25T23:04:52.164Z,100735.69
2022-12-25T23:07:21.243Z,100728.41
2022-12-25T23:09:49.157Z,100736.03
2022-12-25T23:12:30.918Z,100723.03
2022-12-25T23:15:00.188Z,100719.56
2022-12-25T23:17:45.640Z,100716.56
2022-12-25T23:20:32.963Z,100713.66
2022-12-25T23:23:18.810Z,100711.84
2022-12-25T23:26:04.327Z,100718.47
2022-12-25T23:28:49.569Z,100728.50
2022-12-25T23:31:18.979Z,100709.22
2022-12-25T23:33:47.157Z,100718.84
2022-12-25T23:36:15.039Z,100717.88
2022-12-25T23:38:43.007Z,100718.16
2022-12-25T23:41:10.851Z,100709.78
2022-12-25T23:43:38.796Z,100710.19
2022-12-25T23:46:06.997Z,100723.53
2022-12-25T23:48:36.216Z,100709.78
2022-12-25T23:51:05.021Z,100725.16
2022-12-25T23:53:33.970Z,100728.41
2022-12-25T23:56:02.036Z,100726.47
2022-12-25T23:58:31.443Z,100725.38
